createdAt,value
2018-09-11T00:01:40.063Z,99.90
2018-09-11T00:04:08.981Z,99.90
2018-09-11T00:06:37.541Z,99.90
2018-09-11T00:09:09.338Z,99.90
2018-09-11T00:11:38.140Z,99.90
2018-09-11T00:14:06.881Z,99.90
2018-09-11T00:16:35.529Z,99.90
2018-09-11T00:19:04.051Z,99.90
2018-09-11T00:21:32.918Z,99.90
2018-09-11T00:24:01.565Z,99.90
2018-09-11T00:26:30.065Z,99.90
2018-09-11T00:28:58.641Z,99.90
2018-09-11T00:31:27.177Z,99.90
2018-09-11T00:33:55.985Z,99.90
2018-09-11T00:36:24.721Z,99.90
2018-09-11T00:38:53.277Z,99.90
2018-09-11T00:41:24.013Z,99.90
2018-09-11T00:43:52.813Z,99.90
2018-09-11T00:46:21.397Z,99.90
2018-09-11T00:48:49.892Z,99.90
2018-09-11T00:51:18.413Z,99.90
2018-09-11T00:53:46.992Z,99.90
2018-09-11T00:56:15.653Z,99.90
2018-09-11T00:58:44.166Z,99.90
2018-09-11T01:01:12.653Z,99.90
2018-09-11T01:03:41.192Z,99.90
2018-09-11T01:06:09.984Z,99.90
2018-09-11T01:08:38.530Z,99.90
2018-09-11T01:11:07.222Z,99.90
2018-09-11T01:13:35.793Z,99.90
2018-09-11T01:16:04.575Z,99.90
2018-09-11T01:18:33.161Z,99.90
2018-09-11T01:21:01.706Z,99.90
2018-09-11T01:23:30.332Z,99.90
2018-09-11T01:25:59.945Z,99.90
2018-09-11T01:28:28.622Z,99.90
2018-09-11T01:30:57.283Z,99.90
2018-09-11T01:33:26.003Z,99.90
2018-09-11T01:35:54.624Z,99.90
2018-09-11T01:38:23.399Z,99.90
2018-09-11T01:40:52.017Z,99.90
2018-09-11T01:43:20.547Z,99.90
2018-09-11T01:45:49.039Z,99.90
2018-09-11T01:48:17.541Z,99.90
2018-09-11T01:50:46.096Z,99.90
2018-09-11T01:53:16.737Z,99.90
2018-09-11T01:55:45.709Z,99.90
2018-09-11T01:58:14.210Z,99.90
2018-09-11T02:00:42.741Z,99.90
2018-09-11T02:03:11.521Z,99.90
2018-09-11T02:05:40.048Z,99.90
2018-09-11T02:08:08.744Z,99.90
2018-09-11T02:10:37.345Z,99.90
2018-09-11T02:13:06.257Z,99.90
2018-09-11T02:15:35.079Z,99.90
2018-09-11T02:18:03.637Z,99.90
2018-09-11T02:20:35.070Z,99.90
2018-09-11T02:23:03.582Z,99.90
2018-09-11T02:25:32.274Z,99.90
2018-09-11T02:28:01.058Z,99.90
2018-09-11T02:30:29.549Z,99.90
2018-09-11T02:32:58.027Z,99.90
2018-09-11T02:35:26.592Z,99.90
2018-09-11T02:37:55.103Z,99.90
2018-09-11T02:40:23.641Z,99.90
2018-09-11T02:42:52.138Z,99.90
2018-09-11T02:45:23.317Z,99.90
2018-09-11T02:49:27.601Z,99.90
2018-09-11T02:51:56.184Z,99.90
2018-09-11T02:54:24.706Z,99.90
2018-09-11T02:56:53.709Z,99.90
2018-09-11T02:59:22.241Z,99.90
2018-09-11T03:01:50.786Z,99.90
2018-09-11T03:04:20.310Z,99.90
2018-09-11T03:06:49.044Z,99.90
2018-09-11T03:09:17.533Z,99.90
2018-09-11T03:11:46.087Z,99.90
2018-09-11T03:14:14.598Z,99.90
2018-09-11T03:16:43.109Z,99.90
2018-09-11T03:19:11.638Z,99.90
2018-09-11T03:21:40.269Z,99.90
2018-09-11T03:24:08.951Z,99.90
2018-09-11T03:26:37.586Z,99.90
2018-09-11T03:29:06.081Z,99.90
2018-09-11T03:31:34.627Z,99.90
2018-09-11T03:34:03.640Z,99.90
2018-09-11T03:36:32.563Z,99.90
2018-09-11T03:39:01.349Z,99.90
2018-09-11T03:41:29.925Z,99.90
2018-09-11T03:43:58.475Z,99.90
2018-09-11T03:46:26.976Z,99.90
2018-09-11T03:48:55.807Z,99.90
2018-09-11T03:51:25.095Z,99.90
2018-09-11T03:53:53.773Z,99.90
2018-09-11T03:56:22.287Z,99.90
2018-09-11T03:58:51.010Z,99.90
2018-09-11T04:01:20.134Z,99.90
2018-09-11T04:03:48.871Z,99.90
2018-09-11T04:06:17.844Z,99.90
2018-09-11T04:08:46.316Z,99.90
2018-09-11T04:11:14.855Z,99.90
2018-09-11T04:13:43.881Z,99.90
2018-09-11T04:16:12.579Z,99.90
2018-09-11T04:18:41.100Z,99.90
2018-09-11T04:21:10.146Z,99.90
2018-09-11T04:23:38.836Z,99.90
2018-09-11T04:26:08.210Z,99.90
2018-09-11T04:28:36.812Z,99.90
2018-09-11T04:31:05.744Z,99.90
2018-09-11T04:33:34.338Z,99.90
2018-09-11T04:36:02.855Z,99.90
2018-09-11T04:38:31.397Z,99.90
2018-09-11T04:40:59.930Z,99.90
2018-09-11T04:43:28.422Z,99.90
2018-09-11T04:45:57.129Z,99.90
2018-09-11T04:48:25.679Z,99.90
2018-09-11T04:50:54.208Z,99.90
2018-09-11T04:53:22.843Z,99.90
2018-09-11T04:55:51.440Z,99.90
2018-09-11T04:58:19.910Z,99.90
2018-09-11T05:00:49.072Z,99.90
2018-09-11T05:03:17.637Z,99.90
2018-09-11T05:05:46.521Z,99.90
2018-09-11T05:08:15.033Z,99.90
2018-09-11T05:10:43.574Z,99.90
2018-09-11T05:13:12.352Z,99.90
2018-09-11T05:15:41.029Z,99.90
2018-09-11T05:18:09.575Z,99.90
2018-09-11T05:20:38.085Z,99.90
2018-09-11T05:23:06.670Z,99.90
2018-09-11T05:25:35.214Z,99.90
2018-09-11T05:28:03.704Z,99.90
2018-09-11T05:30:32.328Z,99.90
2018-09-11T05:33:00.865Z,99.90
2018-09-11T05:35:33.969Z,99.90
2018-09-11T05:38:02.941Z,99.90
2018-09-11T05:40:31.713Z,99.90
2018-09-11T05:43:00.279Z,99.90
2018-09-11T05:45:28.870Z,99.90
2018-09-11T05:47:57.397Z,99.90
2018-09-11T05:50:25.892Z,99.90
2018-09-11T05:52:54.451Z,99.90
2018-09-11T05:55:23.382Z,99.90
2018-09-11T05:57:51.967Z,99.90
2018-09-11T06:00:21.072Z,99.90
2018-09-11T06:02:50.712Z,99.90
2018-09-11T06:05:19.314Z,99.90
2018-09-11T06:07:47.801Z,99.90
2018-09-11T06:10:16.308Z,99.90
2018-09-11T06:12:45.050Z,99.90
2018-09-11T06:15:13.936Z,99.90
2018-09-11T06:17:42.472Z,99.90
2018-09-11T06:20:11.170Z,99.90
2018-09-11T06:22:39.882Z,99.90
2018-09-11T06:25:08.669Z,99.90
2018-09-11T06:27:37.298Z,99.90
2018-09-11T06:30:05.790Z,99.90
2018-09-11T06:32:34.278Z,99.90
2018-09-11T06:35:03.081Z,99.90
2018-09-11T06:37:31.647Z,99.90
2018-09-11T06:40:00.562Z,99.90
2018-09-11T06:42:29.242Z,99.90
2018-09-11T06:44:58.903Z,99.90
2018-09-11T06:47:27.659Z,99.90
2018-09-11T06:49:56.226Z,99.90
2018-09-11T06:52:25.531Z,99.90
2018-09-11T06:54:54.161Z,99.90
2018-09-11T06:57:22.810Z,99.90
2018-09-11T06:59:51.343Z,99.90
2018-09-11T07:02:20.072Z,99.90
2018-09-11T07:04:48.571Z,99.90
2018-09-11T07:07:17.085Z,99.90
2018-09-11T07:09:45.991Z,99.90
2018-09-11T07:12:14.845Z,99.90
2018-09-11T07:14:43.550Z,99.90
2018-09-11T07:17:12.353Z,99.90
2018-09-11T07:19:41.256Z,99.90
2018-09-11T07:22:10.106Z,99.90
2018-09-11T07:24:38.809Z,99.90
2018-09-11T07:27:07.304Z,99.90
2018-09-11T07:29:36.129Z,99.90
2018-09-11T07:32:04.909Z,99.90
2018-09-11T07:34:33.502Z,99.90
2018-09-11T07:37:02.338Z,99.90
2018-09-11T07:39:30.850Z,99.90
2018-09-11T07:41:59.638Z,99.90
2018-09-11T07:44:28.187Z,99.90
2018-09-11T07:46:56.770Z,99.90
2018-09-11T07:49:25.863Z,99.90
2018-09-11T07:51:54.353Z,99.90
2018-09-11T07:54:23.119Z,99.90
2018-09-11T07:56:52.058Z,99.90
2018-09-11T07:59:20.537Z,99.90
2018-09-11T08:01:49.006Z,99.90
2018-09-11T08:04:17.563Z,99.90
2018-09-11T08:06:46.107Z,99.90
2018-09-11T08:09:14.634Z,99.90
2018-09-11T08:11:43.141Z,99.90
2018-09-11T08:14:11.683Z,99.90
2018-09-11T08:16:40.180Z,99.90
2018-09-11T08:19:08.934Z,99.90
2018-09-11T08:21:37.902Z,99.90
2018-09-11T08:24:06.749Z,99.90
2018-09-11T08:26:35.293Z,99.90
2018-09-11T08:29:03.809Z,99.90
2018-09-11T08:31:32.300Z,99.90
2018-09-11T08:34:01.135Z,99.90
2018-09-11T08:36:29.609Z,99.90
2018-09-11T08:38:58.102Z,99.90
2018-09-11T08:41:26.608Z,99.90
2018-09-11T08:43:55.162Z,99.90
2018-09-11T08:46:23.670Z,99.90
2018-09-11T08:48:52.196Z,99.90
2018-09-11T08:51:20.706Z,99.90
2018-09-11T08:53:49.234Z,99.90
2018-09-11T08:56:17.780Z,99.90
2018-09-11T08:58:47.378Z,99.90
2018-09-11T09:01:15.866Z,99.80
2018-09-11T09:03:44.362Z,99.00
2018-09-11T09:06:13.245Z,98.70
2018-09-11T09:08:41.738Z,98.60
2018-09-11T09:11:10.276Z,98.60
2018-09-11T09:13:39.100Z,98.80
2018-09-11T09:16:07.618Z,98.40
2018-09-11T09:18:36.179Z,97.50
2018-09-11T09:21:05.200Z,98.00
2018-09-11T09:23:35.168Z,97.40
2018-09-11T09:26:04.495Z,97.50
2018-09-11T09:28:33.678Z,97.40
2018-09-11T09:31:02.174Z,97.60
2018-09-11T09:33:30.907Z,97.60
2018-09-11T09:35:59.421Z,96.90
2018-09-11T09:38:28.205Z,96.00
2018-09-11T09:40:56.809Z,96.60
2018-09-11T09:43:25.683Z,96.60
2018-09-11T09:45:54.285Z,95.70
2018-09-11T09:48:23.009Z,95.40
2018-09-11T09:50:51.523Z,94.80
2018-09-11T09:53:20.027Z,94.50
2018-09-11T09:55:48.517Z,94.40
2018-09-11T09:58:17.035Z,93.70
2018-09-11T10:00:51.102Z,94.20
2018-09-11T10:03:19.601Z,93.50
2018-09-11T10:05:48.475Z,93.80
2018-09-11T10:08:17.026Z,93.80
2018-09-11T10:10:45.752Z,93.00
2018-09-11T10:13:14.288Z,92.50
2018-09-11T10:15:42.856Z,92.10
2018-09-11T10:18:11.401Z,92.30
2018-09-11T10:20:40.191Z,92.40
2018-09-11T10:23:08.675Z,92.90
2018-09-11T10:25:37.171Z,92.50
2018-09-11T10:28:05.701Z,91.90
2018-09-11T10:30:34.255Z,92.20
2018-09-11T10:33:02.961Z,92.10
2018-09-11T10:35:31.476Z,91.90
2018-09-11T10:38:00.210Z,92.50
2018-09-11T10:40:28.738Z,92.00
2018-09-11T10:42:57.325Z,91.10
2018-09-11T10:45:25.845Z,91.10
2018-09-11T10:47:54.354Z,91.50
2018-09-11T10:50:22.908Z,90.70
2018-09-11T10:52:51.440Z,90.50
2018-09-11T10:55:19.916Z,88.80
2018-09-11T10:57:48.442Z,89.30
2018-09-11T11:00:17.018Z,89.60
2018-09-11T11:02:45.586Z,88.30
2018-09-11T11:05:14.124Z,88.20
2018-09-11T11:07:42.639Z,86.90
2018-09-11T11:10:11.468Z,87.30
2018-09-11T11:12:39.976Z,86.50
2018-09-11T11:15:08.564Z,85.90
2018-09-11T11:17:37.128Z,85.00
2018-09-11T11:20:05.891Z,84.20
2018-09-11T11:22:34.407Z,83.20
2018-09-11T11:25:02.893Z,84.20
2018-09-11T11:27:32.259Z,84.40
2018-09-11T11:30:00.771Z,84.20
2018-09-11T11:32:29.294Z,81.60
2018-09-11T11:36:27.313Z,82.00
2018-09-11T11:38:55.824Z,81.90
2018-09-11T11:41:24.435Z,80.50
2018-09-11T11:43:54.637Z,78.50
2018-09-11T11:46:23.189Z,78.80
2018-09-11T11:48:51.720Z,80.70
2018-09-11T11:51:20.231Z,80.80
2018-09-11T11:53:48.819Z,78.60
2018-09-11T11:56:17.315Z,78.80
2018-09-11T11:58:46.024Z,80.80
2018-09-11T12:01:14.647Z,79.90
2018-09-11T12:03:43.235Z,79.70
2018-09-11T12:06:11.804Z,80.20
2018-09-11T12:08:40.296Z,81.10
2018-09-11T12:11:08.757Z,81.30
2018-09-11T12:13:37.282Z,79.40
2018-09-11T12:16:05.930Z,78.40
2018-09-11T12:18:34.458Z,76.70
2018-09-11T12:21:03.099Z,77.90
2018-09-11T12:23:31.718Z,79.10
2018-09-11T12:26:00.226Z,78.30
2018-09-11T12:28:29.342Z,80.10
2018-09-11T12:30:58.127Z,78.10
2018-09-11T12:33:26.732Z,78.10
2018-09-11T12:35:55.203Z,78.10
2018-09-11T12:38:23.727Z,77.60
2018-09-11T12:40:52.332Z,78.50
2018-09-11T12:43:20.993Z,77.80
2018-09-11T12:45:49.523Z,76.60
2018-09-11T12:48:18.216Z,77.60
2018-09-11T12:50:46.629Z,77.80
2018-09-11T12:53:15.107Z,77.90
2018-09-11T12:55:43.806Z,78.40
2018-09-11T12:58:12.390Z,79.20
2018-09-11T13:00:40.905Z,79.20
2018-09-11T13:03:09.421Z,80.30
2018-09-11T13:05:37.989Z,77.60
2018-09-11T13:08:06.519Z,79.00
2018-09-11T13:10:35.746Z,79.40
2018-09-11T13:13:04.315Z,78.30
2018-09-11T13:15:32.865Z,79.10
2018-09-11T13:18:01.443Z,77.20
2018-09-11T13:20:29.991Z,77.10
2018-09-11T13:22:58.479Z,77.10
2018-09-11T13:25:27.061Z,78.20
2018-09-11T13:27:55.700Z,74.90
2018-09-11T13:30:24.210Z,73.60
2018-09-11T13:32:52.761Z,72.70
2018-09-11T13:35:21.280Z,71.90
2018-09-11T13:37:49.947Z,72.70
2018-09-11T13:40:18.659Z,72.80
2018-09-11T13:42:47.140Z,73.30
2018-09-11T13:45:15.660Z,72.50
2018-09-11T13:47:44.195Z,72.50
2018-09-11T13:50:12.988Z,73.10
2018-09-11T13:52:42.266Z,72.30
2018-09-11T13:55:13.898Z,72.30
2018-09-11T13:57:42.458Z,71.30
2018-09-11T14:00:11.038Z,71.30
2018-09-11T14:02:40.309Z,69.80
2018-09-11T14:05:08.848Z,70.80
2018-09-11T14:07:37.447Z,70.80
2018-09-11T14:10:06.212Z,71.00
2018-09-11T14:12:35.113Z,70.50
2018-09-11T14:15:03.903Z,72.10
2018-09-11T14:17:32.677Z,71.10
2018-09-11T14:20:01.249Z,69.10
2018-09-11T14:22:29.770Z,69.10
2018-09-11T14:25:05.114Z,69.50
2018-09-11T14:27:33.606Z,69.70
2018-09-11T14:30:02.203Z,71.90
2018-09-11T14:32:30.712Z,70.90
2018-09-11T14:34:59.200Z,70.60
2018-09-11T14:37:27.685Z,69.50
2018-09-11T14:39:56.465Z,69.30
2018-09-11T14:42:25.444Z,71.00
2018-09-11T14:44:54.005Z,70.90
2018-09-11T14:47:22.738Z,71.90
2018-09-11T14:49:51.307Z,71.50
2018-09-11T14:52:19.804Z,72.80
2018-09-11T14:54:48.346Z,71.70
2018-09-11T14:57:16.893Z,71.40
2018-09-11T14:59:45.352Z,73.80
2018-09-11T15:02:13.858Z,73.70
2018-09-11T15:04:42.560Z,72.10
2018-09-11T15:07:11.096Z,70.80
2018-09-11T15:09:39.614Z,71.30
2018-09-11T15:12:08.316Z,72.60
2018-09-11T15:14:36.803Z,72.60
2018-09-11T15:17:05.422Z,71.10
2018-09-11T15:19:34.064Z,70.70
2018-09-11T15:22:02.672Z,70.60
2018-09-11T15:24:31.173Z,71.60
2018-09-11T15:26:59.704Z,72.60
2018-09-11T15:29:28.565Z,73.80
2018-09-11T15:31:57.104Z,73.50
2018-09-11T15:35:55.456Z,73.40
2018-09-11T15:38:24.021Z,73.60
2018-09-11T15:40:52.698Z,73.70
2018-09-11T15:43:21.217Z,73.60
2018-09-11T15:45:50.013Z,74.30
2018-09-11T15:48:18.842Z,74.60
2018-09-11T15:50:47.346Z,74.80
2018-09-11T15:53:15.917Z,74.30
2018-09-11T15:55:44.689Z,75.30
2018-09-11T15:58:13.294Z,75.40
2018-09-11T16:00:41.797Z,76.70
2018-09-11T16:03:10.398Z,76.40
2018-09-11T16:05:39.145Z,76.00
2018-09-11T16:08:07.697Z,77.00
2018-09-11T16:10:36.276Z,76.20
2018-09-11T16:13:04.934Z,75.60
2018-09-11T16:15:33.905Z,75.20
2018-09-11T16:18:02.436Z,75.00
2018-09-11T16:20:31.015Z,75.90
2018-09-11T16:22:59.727Z,74.20
2018-09-11T16:25:28.243Z,73.20
2018-09-11T16:27:56.731Z,72.40
2018-09-11T16:47:41.623Z,72.60
2018-09-11T16:50:10.111Z,73.50
2018-09-11T16:52:38.609Z,73.80
2018-09-11T16:55:07.413Z,73.80
2018-09-11T16:57:35.943Z,73.90
2018-09-11T17:00:04.516Z,75.10
2018-09-11T17:02:33.184Z,75.30
2018-09-11T17:05:01.638Z,75.90
2018-09-11T17:07:30.122Z,75.70
2018-09-11T17:09:59.072Z,75.00
2018-09-11T17:12:30.944Z,75.90
2018-09-11T17:15:02.087Z,76.10
2018-09-11T17:17:30.820Z,76.80
2018-09-11T17:19:59.953Z,77.80
2018-09-11T17:22:28.456Z,78.60
2018-09-11T17:24:59.302Z,79.20
2018-09-11T17:27:28.148Z,79.40
2018-09-11T17:29:56.833Z,79.70
2018-09-11T17:32:26.253Z,80.40
2018-09-11T17:34:56.540Z,81.20
2018-09-11T17:37:25.024Z,81.80
2018-09-11T17:39:53.755Z,82.60
2018-09-11T17:42:22.423Z,83.40
2018-09-11T17:44:51.411Z,84.00
2018-09-11T17:47:20.233Z,84.60
2018-09-11T17:49:48.817Z,85.40
2018-09-11T17:52:17.509Z,86.50
2018-09-11T17:54:46.049Z,87.70
2018-09-11T17:57:16.589Z,88.90
2018-09-11T17:59:45.144Z,89.90
2018-09-11T18:02:17.059Z,90.30
2018-09-11T18:04:45.677Z,90.80
2018-09-11T18:07:14.645Z,91.50
2018-09-11T18:09:43.620Z,91.90
2018-09-11T18:12:13.572Z,92.20
2018-09-11T18:14:42.269Z,92.60
2018-09-11T18:17:10.843Z,92.90
2018-09-11T18:19:39.412Z,93.10
2018-09-11T18:22:08.550Z,93.30
2018-09-11T18:24:37.400Z,93.50
2018-09-11T18:27:05.965Z,93.70
2018-09-11T18:29:34.830Z,94.00
2018-09-11T18:32:03.632Z,94.20
2018-09-11T18:34:32.226Z,94.50
2018-09-11T18:37:00.774Z,94.70
2018-09-11T18:39:29.322Z,95.00
2018-09-11T18:41:57.839Z,95.40
2018-09-11T18:44:26.417Z,96.00
2018-09-11T18:46:55.276Z,96.80
2018-09-11T18:49:23.841Z,97.40
2018-09-11T18:51:52.859Z,98.00
2018-09-11T18:54:21.389Z,98.40
2018-09-11T18:56:50.076Z,99.10
2018-09-11T18:59:19.202Z,99.50
2018-09-11T19:01:47.898Z,99.70
2018-09-11T19:04:16.903Z,99.90
2018-09-11T19:06:45.391Z,99.90
2018-09-11T19:09:13.897Z,99.90
2018-09-11T19:11:42.531Z,99.90
2018-09-11T19:14:11.601Z,99.90
2018-09-11T19:16:41.029Z,99.90
2018-09-11T19:19:09.940Z,99.90
2018-09-11T19:21:38.621Z,99.90
2018-09-11T19:24:07.146Z,99.90
2018-09-11T19:26:36.289Z,99.90
2018-09-11T19:29:04.875Z,99.90
2018-09-11T19:31:33.413Z,99.90
2018-09-11T19:34:01.981Z,99.90
2018-09-11T19:36:30.560Z,99.90
2018-09-11T19:39:00.153Z,99.90
2018-09-11T19:41:28.658Z,99.90
2018-09-11T19:43:57.556Z,99.90
2018-09-11T19:46:26.265Z,99.90
2018-09-11T19:48:55.033Z,99.90
2018-09-11T19:51:23.646Z,99.90
2018-09-11T19:53:52.129Z,99.90
2018-09-11T19:56:20.968Z,99.90
2018-09-11T19:58:49.601Z,99.90
2018-09-11T20:01:18.190Z,99.90
2018-09-11T20:03:46.952Z,99.90
2018-09-11T20:06:15.490Z,99.90
2018-09-11T20:08:44.134Z,99.90
2018-09-11T20:11:12.912Z,99.90
2018-09-11T20:13:41.451Z,99.90
2018-09-11T20:16:10.137Z,99.90
2018-09-11T20:18:38.685Z,99.90
2018-09-11T20:21:07.520Z,99.90
2018-09-11T20:23:36.030Z,99.90
2018-09-11T20:26:04.932Z,99.90
2018-09-11T20:28:33.527Z,99.90
2018-09-11T20:31:02.107Z,99.90
2018-09-11T20:33:30.655Z,99.90
2018-09-11T20:35:59.172Z,99.90
2018-09-11T20:38:27.741Z,99.90
2018-09-11T20:40:56.551Z,99.90
2018-09-11T20:43:25.252Z,99.90
2018-09-11T20:45:53.785Z,99.90
2018-09-11T20:48:22.591Z,99.90
2018-09-11T20:50:51.129Z,99.90
2018-09-11T20:53:19.710Z,99.90
2018-09-11T20:55:48.347Z,99.90
2018-09-11T20:58:16.853Z,99.90
2018-09-11T21:00:45.407Z,99.90
2018-09-11T21:03:13.912Z,99.90
2018-09-11T21:05:42.440Z,99.90
2018-09-11T21:08:10.958Z,99.90
2018-09-11T21:10:39.474Z,99.90
2018-09-11T21:13:08.004Z,99.90
2018-09-11T21:15:36.572Z,99.90
2018-09-11T21:18:05.067Z,99.90
2018-09-11T21:20:33.765Z,99.90
2018-09-11T21:23:02.345Z,99.90
2018-09-11T21:25:31.033Z,99.90
2018-09-11T21:27:59.634Z,99.90
2018-09-11T21:30:28.477Z,99.90
2018-09-11T21:32:56.995Z,99.90
2018-09-11T21:35:25.513Z,99.90
2018-09-11T21:37:54.193Z,99.90
2018-09-11T21:40:22.743Z,99.90
2018-09-11T21:42:57.074Z,99.90
2018-09-11T21:45:31.885Z,99.90
2018-09-11T21:48:01.026Z,99.90
2018-09-11T21:50:30.583Z,99.90
2018-09-11T21:52:59.092Z,99.90
2018-09-11T21:55:30.273Z,99.90
2018-09-11T21:57:59.040Z,99.90
2018-09-11T22:00:27.545Z,99.90
2018-09-11T22:02:57.320Z,99.90
2018-09-11T22:05:25.846Z,99.90
2018-09-11T22:07:54.558Z,99.90
2018-09-11T22:10:23.425Z,99.90
2018-09-11T22:12:51.954Z,99.90
2018-09-11T22:15:20.557Z,99.90
2018-09-11T22:17:49.324Z,99.90
2018-09-11T22:20:17.882Z,99.90
2018-09-11T22:22:46.426Z,99.90
2018-09-11T22:25:15.135Z,99.90
2018-09-11T22:27:43.719Z,99.90
2018-09-11T22:30:12.246Z,99.90
2018-09-11T22:32:41.003Z,99.90
2018-09-11T22:35:10.504Z,99.90
2018-09-11T22:37:39.061Z,99.90
2018-09-11T22:40:07.821Z,99.90
2018-09-11T22:42:36.388Z,99.90
2018-09-11T22:45:04.909Z,99.90
2018-09-11T22:47:33.401Z,99.90
2018-09-11T22:50:02.044Z,99.90
2018-09-11T22:52:31.023Z,99.90
2018-09-11T22:54:59.560Z,99.90
2018-09-11T22:57:28.029Z,99.90
2018-09-11T22:59:56.589Z,99.90
2018-09-11T23:02:25.122Z,99.90
2018-09-11T23:04:53.825Z,99.90
2018-09-11T23:07:22.319Z,99.90
2018-09-11T23:09:50.779Z,99.90
2018-09-11T23:12:19.497Z,99.90
2018-09-11T23:14:48.005Z,99.90
2018-09-11T23:17:16.963Z,99.90
2018-09-11T23:19:45.863Z,99.90
2018-09-11T23:22:14.962Z,99.90
2018-09-11T23:24:43.495Z,99.90
2018-09-11T23:27:12.032Z,99.90
2018-09-11T23:29:41.007Z,99.90
2018-09-11T23:32:09.701Z,99.90
2018-09-11T23:34:38.465Z,99.90
2018-09-11T23:37:07.403Z,99.90
2018-09-11T23:39:36.671Z,99.90
2018-09-11T23:42:05.137Z,99.90
2018-09-11T23:44:33.729Z,99.90
2018-09-11T23:47:02.539Z,99.90
2018-09-11T23:49:31.093Z,99.90
2018-09-11T23:51:59.827Z,99.90
2018-09-11T23:54:28.316Z,99.90
2018-09-11T23:56:57.142Z,99.90
2018-09-11T23:59:25.876Z,99.90
